createdAt,value
2023-02-06T00:00:29.305Z,2.53
2023-02-06T00:01:29.291Z,2.46
2023-02-06T00:03:49.745Z,2.55
2023-02-06T00:04:49.744Z,2.44
2023-02-06T00:05:49.774Z,2.45
2023-02-06T00:06:49.726Z,2.38
2023-02-06T00:07:49.714Z,2.38
2023-02-06T00:08:49.706Z,2.49
2023-02-06T00:09:49.690Z,2.41
2023-02-06T00:10:49.689Z,2.48
2023-02-06T00:11:49.670Z,2.46
2023-02-06T00:12:49.658Z,2.38
2023-02-06T00:13:49.681Z,2.52
2023-02-06T00:14:49.636Z,2.46
2023-02-06T00:15:49.676Z,2.45
2023-02-06T00:16:49.612Z,2.49
2023-02-06T00:17:49.601Z,2.44
2023-02-06T00:18:49.614Z,2.44
2023-02-06T00:19:49.582Z,2.41
2023-02-06T00:20:49.568Z,2.35
2023-02-06T00:21:49.562Z,2.51
2023-02-06T00:22:49.543Z,2.48
2023-02-06T00:23:49.552Z,2.35
2023-02-06T00:24:49.529Z,2.44
2023-02-06T00:25:49.526Z,2.45
2023-02-06T00:26:49.498Z,2.38
2023-02-06T00:27:49.524Z,2.35
2023-02-06T00:28:49.489Z,2.48
2023-02-06T00:29:49.468Z,2.44
2023-02-06T00:30:49.477Z,2.51
2023-02-06T00:31:49.543Z,2.48
2023-02-06T00:32:49.516Z,2.45
2023-02-06T00:33:49.446Z,2.51
2023-02-06T00:34:49.415Z,2.51
2023-02-06T00:35:49.406Z,2.48
2023-02-06T00:36:49.395Z,2.48
2023-02-06T00:37:49.389Z,2.41
2023-02-06T00:38:49.383Z,2.55
2023-02-06T00:39:49.376Z,2.53
2023-02-06T00:40:49.356Z,2.46
2023-02-06T00:41:49.347Z,2.53
2023-02-06T00:42:49.333Z,2.51
2023-02-06T00:43:49.343Z,2.49
2023-02-06T00:44:49.320Z,2.41
2023-02-06T00:45:49.309Z,2.51
2023-02-06T00:46:49.294Z,2.34
2023-02-06T00:47:49.292Z,2.37
2023-02-06T00:48:49.280Z,2.35
2023-02-06T00:49:49.261Z,2.16
2023-02-06T00:50:49.248Z,2.27
2023-02-06T00:51:49.245Z,2.31
2023-02-06T00:52:49.225Z,2.26
2023-02-06T00:53:51.114Z,2.31
2023-02-06T00:54:49.208Z,2.17
2023-02-06T00:55:49.200Z,2.38
2023-02-06T00:56:49.187Z,2.20
2023-02-06T00:57:49.175Z,2.33
2023-02-06T00:58:49.182Z,2.22
2023-02-06T00:59:49.162Z,2.34
2023-02-06T01:00:49.148Z,2.37
2023-02-06T01:01:49.214Z,2.26
2023-02-06T01:02:49.204Z,2.38
2023-02-06T01:03:49.127Z,2.40
2023-02-06T01:04:49.099Z,2.37
2023-02-06T01:05:49.093Z,2.40
2023-02-06T01:06:49.075Z,2.30
2023-02-06T01:07:49.069Z,2.44
2023-02-06T01:08:49.064Z,2.35
2023-02-06T01:09:49.047Z,2.35
2023-02-06T01:10:49.037Z,2.45
2023-02-06T01:11:49.022Z,2.46
2023-02-06T01:12:49.029Z,2.41
2023-02-06T01:13:49.018Z,2.37
2023-02-06T01:14:48.989Z,2.53
2023-02-06T01:15:50.985Z,2.51
2023-02-06T01:16:48.971Z,2.45
2023-02-06T01:17:48.959Z,2.38
2023-02-06T01:18:48.963Z,2.45
2023-02-06T01:19:48.942Z,2.46
2023-02-06T01:20:48.926Z,2.46
2023-02-06T01:21:48.921Z,2.49
2023-02-06T01:22:48.907Z,2.44
2023-02-06T01:23:48.907Z,2.40
2023-02-06T01:24:48.884Z,2.49
2023-02-06T01:25:48.879Z,2.40
2023-02-06T01:26:48.863Z,2.38
2023-02-06T01:27:48.885Z,2.35
2023-02-06T01:28:48.857Z,2.37
2023-02-06T01:29:48.844Z,2.46
2023-02-06T01:30:48.850Z,2.37
2023-02-06T01:31:48.834Z,2.46
2023-02-06T01:32:48.807Z,2.33
2023-02-06T01:33:49.928Z,2.30
2023-02-06T01:34:49.906Z,2.30
2023-02-06T01:35:49.902Z,2.31
2023-02-06T01:36:49.876Z,2.40
2023-02-06T01:37:49.874Z,2.37
2023-02-06T01:38:49.885Z,2.33
2023-02-06T01:39:49.849Z,2.46
2023-02-06T01:40:49.835Z,2.44
2023-02-06T01:41:49.833Z,2.45
2023-02-06T01:42:49.821Z,2.44
2023-02-06T01:43:49.832Z,2.33
2023-02-06T01:44:49.817Z,2.52
2023-02-06T01:45:49.803Z,2.49
2023-02-06T01:46:49.810Z,2.49
2023-02-06T01:47:49.775Z,2.48
2023-02-06T01:48:49.769Z,2.51
2023-02-06T01:49:49.762Z,2.41
2023-02-06T01:50:49.763Z,2.53
2023-02-06T01:51:49.733Z,2.48
2023-02-06T01:52:49.728Z,2.56
2023-02-06T01:53:49.713Z,2.53
2023-02-06T01:54:49.713Z,2.53
2023-02-06T01:55:49.704Z,2.46
2023-02-06T01:56:49.681Z,2.56
2023-02-06T01:57:49.667Z,2.51
2023-02-06T01:58:49.656Z,2.55
2023-02-06T01:59:49.653Z,2.52
2023-02-06T02:00:49.751Z,2.53
2023-02-06T02:01:49.688Z,2.49
2023-02-06T02:02:49.621Z,2.55
2023-02-06T02:03:49.601Z,2.55
2023-02-06T02:04:49.599Z,2.55
2023-02-06T02:05:49.580Z,2.46
2023-02-06T02:06:49.577Z,2.56
2023-02-06T02:07:49.570Z,2.52
2023-02-06T02:08:49.547Z,2.59
2023-02-06T02:09:49.549Z,2.63
2023-02-06T02:10:49.542Z,2.53
2023-02-06T02:11:49.521Z,2.46
2023-02-06T02:12:49.527Z,2.48
2023-02-06T02:13:49.514Z,2.37
2023-02-06T02:14:49.518Z,2.37
2023-02-06T02:15:49.494Z,2.30
2023-02-06T02:16:49.474Z,2.40
2023-02-06T02:17:49.466Z,2.31
2023-02-06T02:18:49.452Z,2.28
2023-02-06T02:19:49.467Z,2.30
2023-02-06T02:20:49.446Z,2.30
2023-02-06T02:21:49.433Z,2.44
2023-02-06T02:22:49.423Z,2.37
2023-02-06T02:23:49.424Z,2.35
2023-02-06T02:24:49.439Z,2.40
2023-02-06T02:25:49.385Z,2.35
2023-02-06T02:26:49.376Z,2.41
2023-02-06T02:27:49.394Z,2.38
2023-02-06T02:28:49.354Z,2.38
2023-02-06T02:29:49.354Z,2.44
2023-02-06T02:30:49.333Z,2.44
2023-02-06T02:31:49.381Z,2.48
2023-02-06T02:32:49.313Z,2.46
2023-02-06T02:33:49.314Z,2.41
2023-02-06T02:34:49.327Z,2.38
2023-02-06T02:35:49.279Z,2.37
2023-02-06T02:36:49.270Z,2.30
2023-02-06T02:37:49.263Z,2.27
2023-02-06T02:38:49.254Z,2.23
2023-02-06T02:39:49.245Z,2.31
2023-02-06T02:40:49.239Z,2.27
2023-02-06T02:41:49.222Z,2.20
2023-02-06T02:42:49.201Z,2.27
2023-02-06T02:43:49.200Z,2.37
2023-02-06T02:44:49.193Z,2.37
2023-02-06T02:45:49.200Z,2.35
2023-02-06T02:46:49.169Z,2.38
2023-02-06T02:47:49.161Z,2.41
2023-02-06T02:48:49.145Z,2.41
2023-02-06T02:49:49.127Z,2.31
2023-02-06T02:50:49.121Z,2.35
2023-02-06T02:51:49.104Z,2.31
2023-02-06T02:52:49.094Z,2.27
2023-02-06T02:53:49.083Z,2.22
2023-02-06T02:54:49.083Z,2.37
2023-02-06T02:55:49.076Z,2.37
2023-02-06T02:56:49.047Z,2.37
2023-02-06T02:57:49.050Z,2.34
2023-02-06T02:58:49.038Z,2.38
2023-02-06T02:59:49.040Z,2.35
2023-02-06T03:00:49.048Z,2.45
2023-02-06T03:01:49.041Z,2.45
2023-02-06T03:02:48.994Z,2.40
2023-02-06T03:03:48.973Z,2.51
2023-02-06T03:04:48.966Z,2.49
2023-02-06T03:05:48.969Z,2.38
2023-02-06T03:06:48.938Z,2.55
2023-02-06T03:07:48.939Z,2.37
2023-02-06T03:08:48.920Z,2.48
2023-02-06T03:09:48.922Z,2.41
2023-02-06T03:10:48.912Z,2.40
2023-02-06T03:11:48.889Z,2.37
2023-02-06T03:12:48.880Z,2.35
2023-02-06T03:13:48.874Z,2.55
2023-02-06T03:14:48.851Z,2.44
2023-02-06T03:15:48.872Z,2.34
2023-02-06T03:16:48.958Z,2.49
2023-02-06T03:17:48.825Z,2.45
2023-02-06T03:18:48.817Z,2.48
2023-02-06T03:19:48.820Z,2.56
2023-02-06T03:20:48.824Z,2.52
2023-02-06T03:21:48.787Z,2.45
2023-02-06T03:22:48.797Z,2.52
2023-02-06T03:23:48.768Z,2.49
2023-02-06T03:24:48.770Z,2.48
2023-02-06T03:25:48.752Z,2.51
2023-02-06T03:26:48.733Z,2.38
2023-02-06T03:27:48.745Z,2.48
2023-02-06T03:28:48.721Z,2.45
2023-02-06T03:29:48.727Z,2.40
2023-02-06T03:30:48.775Z,2.34
2023-02-06T03:31:48.730Z,2.31
2023-02-06T03:32:48.683Z,2.33
2023-02-06T03:33:48.672Z,2.35
2023-02-06T03:34:48.660Z,2.37
2023-02-06T03:35:48.656Z,2.44
2023-02-06T03:36:48.645Z,2.41
2023-02-06T03:37:48.619Z,2.41
2023-02-06T03:38:48.619Z,2.41
2023-02-06T03:39:48.605Z,2.41
2023-02-06T03:40:49.606Z,2.45
2023-02-06T03:41:48.594Z,2.41
2023-02-06T03:42:48.574Z,2.44
2023-02-06T03:43:48.710Z,2.52
2023-02-06T03:44:48.563Z,2.37
2023-02-06T03:45:48.595Z,2.37
2023-02-06T03:46:48.534Z,2.44
2023-02-06T03:47:48.524Z,2.34
2023-02-06T03:48:48.532Z,2.46
2023-02-06T03:49:48.495Z,2.33
2023-02-06T03:50:48.509Z,2.38
2023-02-06T03:51:48.480Z,2.31
2023-02-06T03:52:48.472Z,2.37
2023-02-06T03:53:48.468Z,2.34
2023-02-06T03:54:48.458Z,2.26
2023-02-06T03:55:48.450Z,2.26
2023-02-06T03:56:48.427Z,2.30
2023-02-06T03:57:48.422Z,2.27
2023-02-06T03:58:48.407Z,2.31
2023-02-06T03:59:48.395Z,2.17
2023-02-06T04:00:48.409Z,2.15
2023-02-06T04:01:48.380Z,2.16
2023-02-06T04:02:48.390Z,2.23
2023-02-06T04:03:48.360Z,2.23
2023-02-06T04:04:48.353Z,2.26
2023-02-06T04:05:48.378Z,2.23
2023-02-06T04:06:48.336Z,2.17
2023-02-06T04:07:48.328Z,2.28
2023-02-06T04:08:48.317Z,2.19
2023-02-06T04:09:48.299Z,2.23
2023-02-06T04:10:48.315Z,2.31
2023-02-06T04:11:48.274Z,2.30
2023-02-06T04:12:48.262Z,2.27
2023-02-06T04:13:48.272Z,2.27
2023-02-06T04:14:48.247Z,2.31
2023-02-06T04:15:48.247Z,2.30
2023-02-06T04:16:48.294Z,2.26
2023-02-06T04:17:59.237Z,2.20
2023-02-06T04:18:50.209Z,2.26
2023-02-06T04:19:48.198Z,2.22
2023-02-06T04:20:48.193Z,2.30
2023-02-06T04:21:48.202Z,2.33
2023-02-06T04:22:48.168Z,2.19
2023-02-06T04:23:48.157Z,2.16
2023-02-06T04:24:48.153Z,2.15
2023-02-06T04:25:48.134Z,2.22
2023-02-06T04:26:48.137Z,2.27
2023-02-06T04:27:48.148Z,2.20
2023-02-06T04:28:48.104Z,2.17
2023-02-06T04:29:48.099Z,2.31
2023-02-06T04:30:48.099Z,2.26
2023-02-06T04:31:48.086Z,2.22
2023-02-06T04:32:48.066Z,2.26
2023-02-06T04:33:48.051Z,2.31
2023-02-06T04:34:48.043Z,2.31
2023-02-06T04:35:48.026Z,2.35
2023-02-06T04:36:48.030Z,2.33
2023-02-06T04:37:48.008Z,2.34
2023-02-06T04:38:48.002Z,2.22
2023-02-06T04:39:48.001Z,2.28
2023-02-06T04:40:47.979Z,2.38
2023-02-06T04:41:47.977Z,2.35
2023-02-06T04:42:47.957Z,2.19
2023-02-06T04:43:47.967Z,2.26
2023-02-06T04:44:47.948Z,2.30
2023-02-06T04:45:47.944Z,2.23
2023-02-06T04:46:47.938Z,2.26
2023-02-06T04:47:47.934Z,2.26
2023-02-06T04:48:47.907Z,2.30
2023-02-06T04:49:47.902Z,2.23
2023-02-06T04:50:47.877Z,2.23
2023-02-06T04:51:47.889Z,2.27
2023-02-06T04:52:47.870Z,2.28
2023-02-06T04:53:47.849Z,2.22
2023-02-06T04:54:47.840Z,2.22
2023-02-06T04:55:47.824Z,2.33
2023-02-06T04:56:47.840Z,2.33
2023-02-06T04:57:47.816Z,2.23
2023-02-06T04:58:47.797Z,2.22
2023-02-06T04:59:48.788Z,2.26
2023-02-06T05:00:47.770Z,2.26
2023-02-06T05:01:47.827Z,2.22
2023-02-06T05:02:47.807Z,2.28
2023-02-06T05:03:47.738Z,2.26
2023-02-06T05:04:47.732Z,2.28
2023-02-06T05:05:47.723Z,2.30
2023-02-06T05:06:47.728Z,2.20
2023-02-06T05:07:47.711Z,2.26
2023-02-06T05:08:47.705Z,2.22
2023-02-06T05:09:47.697Z,2.28
2023-02-06T05:10:47.674Z,2.34
2023-02-06T05:11:47.678Z,2.33
2023-02-06T05:12:47.658Z,2.30
2023-02-06T05:13:47.632Z,2.28
2023-02-06T05:14:47.646Z,2.16
2023-02-06T05:15:47.643Z,2.34
2023-02-06T05:16:47.597Z,2.34
2023-02-06T05:17:48.616Z,2.30
2023-02-06T05:18:47.581Z,2.20
2023-02-06T05:19:47.580Z,2.22
2023-02-06T05:20:47.565Z,2.22
2023-02-06T05:21:47.565Z,2.27
2023-02-06T05:22:47.562Z,2.30
2023-02-06T05:23:47.540Z,2.22
2023-02-06T05:24:47.547Z,2.26
2023-02-06T05:25:47.502Z,2.20
2023-02-06T05:26:48.512Z,2.16
2023-02-06T05:27:47.549Z,2.20
2023-02-06T05:28:47.486Z,2.22
2023-02-06T05:29:47.472Z,2.22
2023-02-06T05:30:47.607Z,2.26
2023-02-06T05:31:47.511Z,2.19
2023-02-06T05:32:47.458Z,2.19
2023-02-06T05:33:47.436Z,2.16
2023-02-06T05:34:47.429Z,2.16
2023-02-06T05:35:47.424Z,2.19
2023-02-06T05:36:47.418Z,2.10
2023-02-06T05:37:47.402Z,2.17
2023-02-06T05:38:47.399Z,2.15
2023-02-06T05:39:47.378Z,2.17
2023-02-06T05:40:47.380Z,2.20
2023-02-06T05:41:47.349Z,2.13
2023-02-06T05:42:48.363Z,2.16
2023-02-06T05:43:47.341Z,2.10
2023-02-06T05:44:47.338Z,2.10
2023-02-06T05:45:47.318Z,2.04
2023-02-06T05:46:47.302Z,2.13
2023-02-06T05:47:47.302Z,2.01
2023-02-06T05:48:47.287Z,2.08
2023-02-06T05:49:47.271Z,2.13
2023-02-06T05:50:47.263Z,2.15
2023-02-06T05:51:47.257Z,2.04
2023-02-06T05:52:47.256Z,2.04
2023-02-06T05:53:47.234Z,1.93
2023-02-06T05:54:48.223Z,1.94
2023-02-06T05:55:47.224Z,1.89
2023-02-06T05:56:47.206Z,1.97
2023-02-06T05:57:47.236Z,1.91
2023-02-06T05:58:47.191Z,1.87
2023-02-06T05:59:47.189Z,1.98
2023-02-06T06:00:47.156Z,1.83
2023-02-06T06:01:47.161Z,1.76
2023-02-06T06:02:47.187Z,1.72
2023-02-06T06:03:47.226Z,1.75
2023-02-06T06:04:47.218Z,1.64
2023-02-06T06:05:47.136Z,1.72
2023-02-06T06:06:47.113Z,1.75
2023-02-06T06:07:47.117Z,1.76
2023-02-06T06:08:47.115Z,1.78
2023-02-06T06:09:47.091Z,1.78
2023-02-06T06:10:47.071Z,1.69
2023-02-06T06:11:47.069Z,1.64
2023-02-06T06:12:47.059Z,1.72
2023-02-06T06:13:47.048Z,1.71
2023-02-06T06:14:47.116Z,1.75
2023-02-06T06:15:47.073Z,1.69
2023-02-06T06:16:47.030Z,1.72
2023-02-06T06:17:47.047Z,1.65
2023-02-06T06:18:47.075Z,1.73
2023-02-06T06:19:47.037Z,1.75
2023-02-06T06:20:47.638Z,1.68
2023-02-06T06:21:47.003Z,1.65
2023-02-06T06:22:47.044Z,1.76
2023-02-06T06:23:46.996Z,1.75
2023-02-06T06:24:46.965Z,1.72
2023-02-06T06:25:46.957Z,1.65
2023-02-06T06:26:47.915Z,1.60
2023-02-06T06:27:46.976Z,1.71
2023-02-06T06:28:46.939Z,1.65
2023-02-06T06:29:46.908Z,1.79
2023-02-06T06:30:46.935Z,1.83
2023-02-06T06:31:46.900Z,1.75
2023-02-06T06:32:46.872Z,1.71
2023-02-06T06:33:47.884Z,1.76
2023-02-06T06:34:46.873Z,1.75
2023-02-06T06:35:46.904Z,1.68
2023-02-06T06:36:46.846Z,1.72
2023-02-06T06:37:46.839Z,1.61
2023-02-06T06:38:46.878Z,1.73
2023-02-06T06:39:46.843Z,1.65
2023-02-06T06:40:46.802Z,1.82
2023-02-06T06:41:46.816Z,1.78
2023-02-06T06:42:46.807Z,1.62
2023-02-06T06:43:46.757Z,1.75
2023-02-06T06:44:46.763Z,1.65
2023-02-06T06:45:46.794Z,1.76
2023-02-06T06:46:46.855Z,1.78
2023-02-06T06:47:46.740Z,1.72
2023-02-06T06:48:46.757Z,1.79
2023-02-06T06:49:46.786Z,1.68
2023-02-06T06:50:46.717Z,1.75
2023-02-06T06:51:46.718Z,1.69
2023-02-06T06:52:46.722Z,1.72
2023-02-06T06:53:46.741Z,1.78
2023-02-06T06:54:47.687Z,1.79
2023-02-06T06:55:46.667Z,1.68
2023-02-06T06:56:46.635Z,1.76
2023-02-06T06:57:46.672Z,1.83
2023-02-06T06:58:46.655Z,1.82
2023-02-06T06:59:46.650Z,1.78
2023-02-06T07:00:46.665Z,1.89
2023-02-06T07:01:46.610Z,1.90
2023-02-06T07:02:46.623Z,1.90
2023-02-06T07:03:46.600Z,1.80
2023-02-06T07:04:46.540Z,1.91
2023-02-06T07:05:46.561Z,1.98
2023-02-06T07:06:47.571Z,1.94
2023-02-06T07:07:46.560Z,1.85
2023-02-06T07:08:46.561Z,1.99
2023-02-06T07:09:46.529Z,1.98
2023-02-06T07:10:46.532Z,1.90
2023-02-06T07:11:46.529Z,1.91
2023-02-06T07:12:46.509Z,1.99
2023-02-06T07:13:46.504Z,1.94
2023-02-06T07:14:46.495Z,2.04
2023-02-06T07:15:46.476Z,1.97
2023-02-06T07:16:46.490Z,1.98
2023-02-06T07:17:46.429Z,1.97
2023-02-06T07:18:46.471Z,1.97
2023-02-06T07:19:46.419Z,2.08
2023-02-06T07:20:46.434Z,1.99
2023-02-06T07:21:46.416Z,2.02
2023-02-06T07:22:46.421Z,2.15
2023-02-06T07:23:46.420Z,2.09
2023-02-06T07:24:46.414Z,1.99
2023-02-06T07:25:46.405Z,2.10
2023-02-06T07:26:46.412Z,2.08
2023-02-06T07:27:46.368Z,2.13
2023-02-06T07:28:46.365Z,2.04
2023-02-06T07:29:46.368Z,2.06
2023-02-06T07:30:46.422Z,2.16
2023-02-06T07:31:46.456Z,1.99
2023-02-06T07:32:46.330Z,2.17
2023-02-06T07:33:46.303Z,2.20
2023-02-06T07:34:46.313Z,2.15
2023-02-06T07:35:46.271Z,1.97
2023-02-06T07:36:46.286Z,1.85
2023-02-06T07:37:46.298Z,2.02
2023-02-06T07:38:46.267Z,1.91
2023-02-06T07:39:46.240Z,1.99
2023-02-06T07:40:46.294Z,1.89
2023-02-06T07:41:46.234Z,1.93
2023-02-06T07:42:46.208Z,2.02
2023-02-06T07:43:46.220Z,2.01
2023-02-06T07:44:46.175Z,2.13
2023-02-06T07:45:46.216Z,2.08
2023-02-06T07:46:46.161Z,2.10
2023-02-06T07:47:46.158Z,2.15
2023-02-06T07:48:46.174Z,2.06
2023-02-06T07:49:46.160Z,2.13
2023-02-06T07:50:46.172Z,2.20
2023-02-06T07:51:46.111Z,2.19
2023-02-06T07:52:46.102Z,2.27
2023-02-06T07:53:46.088Z,2.16
2023-02-06T07:54:47.093Z,2.27
2023-02-06T07:55:46.092Z,2.23
2023-02-06T07:56:46.104Z,2.27
2023-02-06T07:57:46.074Z,2.22
2023-02-06T07:58:46.111Z,2.28
2023-02-06T07:59:46.064Z,2.20
2023-02-06T08:00:46.053Z,2.28
2023-02-06T08:01:46.097Z,2.16
2023-02-06T08:02:46.021Z,2.19
2023-02-06T08:03:46.025Z,2.22
2023-02-06T08:04:46.041Z,2.20
2023-02-06T08:05:45.984Z,2.27
2023-02-06T08:06:46.012Z,2.22
2023-02-06T08:07:45.956Z,2.30
2023-02-06T08:08:45.967Z,2.28
2023-02-06T08:09:45.933Z,2.27
2023-02-06T08:10:45.930Z,2.38
2023-02-06T08:11:45.901Z,2.30
2023-02-06T08:12:45.908Z,2.16
2023-02-06T08:13:45.864Z,2.23
2023-02-06T08:14:45.970Z,2.22
2023-02-06T08:15:45.868Z,2.13
2023-02-06T08:16:45.901Z,2.16
2023-02-06T08:17:45.876Z,2.10
2023-02-06T08:18:45.819Z,2.17
2023-02-06T08:19:45.839Z,2.10
2023-02-06T08:20:45.837Z,2.13
2023-02-06T08:21:45.841Z,1.94
2023-02-06T08:22:45.820Z,2.08
2023-02-06T08:23:45.884Z,1.99
2023-02-06T08:24:45.821Z,2.12
2023-02-06T08:25:45.753Z,2.09
2023-02-06T08:26:45.739Z,2.17
2023-02-06T08:27:45.803Z,2.16
2023-02-06T08:28:45.771Z,2.22
2023-02-06T08:29:45.746Z,2.30
2023-02-06T08:30:45.801Z,2.38
2023-02-06T08:31:45.814Z,2.34
2023-02-06T08:32:45.711Z,2.52
2023-02-06T08:33:45.689Z,2.58
2023-02-06T08:34:45.708Z,2.56
2023-02-06T08:35:45.692Z,2.56
2023-02-06T08:36:45.656Z,2.63
2023-02-06T08:37:45.673Z,2.71
2023-02-06T08:38:46.739Z,2.81
2023-02-06T08:39:46.634Z,2.84
2023-02-06T08:40:45.625Z,2.91
2023-02-06T08:41:45.621Z,2.76
2023-02-06T08:42:45.653Z,2.81
2023-02-06T08:43:45.604Z,2.91
2023-02-06T08:44:45.571Z,2.82
2023-02-06T08:45:45.642Z,2.82
2023-02-06T08:46:45.598Z,2.76
2023-02-06T08:47:45.582Z,2.76
2023-02-06T08:48:45.596Z,2.87
2023-02-06T08:49:45.557Z,2.85
2023-02-06T08:50:48.508Z,2.77
2023-02-06T08:51:45.559Z,2.82
2023-02-06T08:52:45.529Z,2.81
2023-02-06T08:53:45.488Z,2.91
2023-02-06T08:54:45.516Z,2.87
2023-02-06T08:55:45.494Z,2.97
2023-02-06T08:56:45.537Z,2.98
2023-02-06T08:57:45.476Z,3.03
2023-02-06T08:58:45.459Z,3.16
2023-02-06T08:59:45.598Z,3.24
2023-02-06T09:00:45.423Z,3.16
2023-02-06T09:01:45.621Z,3.23
2023-02-06T09:05:09.341Z,3.31
2023-02-06T09:06:10.462Z,3.33
2023-02-06T09:07:09.295Z,3.49
2023-02-06T10:53:03.648Z,12.12
2023-02-06T10:53:38.511Z,13.52
2023-02-06T10:54:38.498Z,14.47
2023-02-06T10:55:38.493Z,14.27
2023-02-06T10:56:38.524Z,14.62
2023-02-06T10:57:38.471Z,15.81
2023-02-06T10:58:38.462Z,15.05
2023-02-06T10:59:38.423Z,14.61
2023-02-06T11:00:38.867Z,15.05
2023-02-06T11:01:38.602Z,15.36
2023-02-06T11:02:38.398Z,15.46
2023-02-06T11:03:39.840Z,15.05
2023-02-06T11:04:38.415Z,14.60
2023-02-06T11:05:38.870Z,13.89
2023-02-06T11:06:38.381Z,13.36
2023-02-06T11:07:38.356Z,13.09
2023-02-06T11:08:38.341Z,13.17
2023-02-06T11:09:38.342Z,13.40
2023-02-06T11:10:38.789Z,13.09
2023-02-06T11:11:38.309Z,12.64
2023-02-06T11:12:38.400Z,12.31
2023-02-06T11:13:38.309Z,11.43
2023-02-06T11:15:40.138Z,10.24
2023-02-06T11:16:38.295Z,9.99
2023-02-06T11:17:38.227Z,9.71
2023-02-06T11:18:38.206Z,9.63
2023-02-06T11:19:38.198Z,9.46
2023-02-06T11:20:38.488Z,9.13
2023-02-06T11:21:38.170Z,8.93
2023-02-06T11:22:51.042Z,8.75
2023-02-06T11:23:39.153Z,8.73
2023-02-06T11:24:38.150Z,9.63
2023-02-06T11:25:38.498Z,11.06
2023-02-06T11:26:38.141Z,11.29
2023-02-06T11:27:38.122Z,11.71
2023-02-06T11:28:38.104Z,13.03
2023-02-06T11:29:38.096Z,12.34
2023-02-06T11:30:38.465Z,12.12
2023-02-06T11:31:38.286Z,11.89
2023-02-06T11:32:38.073Z,10.95
2023-02-06T11:33:38.056Z,10.81
2023-02-06T11:34:38.039Z,10.46
2023-02-06T11:35:38.431Z,10.46
2023-02-06T11:36:38.011Z,10.40
2023-02-06T11:37:38.030Z,10.30
2023-02-06T11:38:37.990Z,10.17
2023-02-06T11:39:37.995Z,9.89
2023-02-06T11:40:38.468Z,9.21
2023-02-06T11:41:37.971Z,9.16
2023-02-06T11:42:37.983Z,8.83
2023-02-06T11:43:37.973Z,8.50
2023-02-06T11:44:37.934Z,8.91
2023-02-06T11:45:38.235Z,9.30
2023-02-06T11:46:37.915Z,9.58
2023-02-06T11:47:38.288Z,9.46
2023-02-06T11:48:37.900Z,9.63
2023-02-06T11:49:37.898Z,9.21
2023-02-06T11:50:38.192Z,9.09
2023-02-06T11:51:37.862Z,8.96
2023-02-06T11:52:37.863Z,8.83
2023-02-06T11:53:37.899Z,8.39
2023-02-06T11:54:37.829Z,8.18
2023-02-06T11:55:38.111Z,8.12
2023-02-06T11:56:37.806Z,8.11
2023-02-06T11:57:37.815Z,7.97
2023-02-06T11:58:37.791Z,8.15
2023-02-06T11:59:37.781Z,7.93
2023-02-06T12:00:37.767Z,8.83
2023-02-06T12:01:37.779Z,9.82
2023-02-06T12:02:37.788Z,11.56
2023-02-06T12:03:37.832Z,11.78
2023-02-06T12:04:37.736Z,11.53
2023-02-06T12:05:38.175Z,11.59
2023-02-06T12:06:37.710Z,12.60
2023-02-06T12:07:37.736Z,11.75
2023-02-06T12:08:37.690Z,11.03
2023-02-06T12:09:37.679Z,10.70
2023-02-06T12:10:37.672Z,10.73
2023-02-06T12:11:37.669Z,10.30
2023-02-06T12:12:37.671Z,10.06
2023-02-06T12:13:37.646Z,9.86
2023-02-06T12:14:37.627Z,9.66
2023-02-06T12:15:46.644Z,9.50
2023-02-06T12:16:38.649Z,9.43
2023-02-06T12:17:37.603Z,9.39
2023-02-06T12:18:37.613Z,9.05
2023-02-06T12:19:37.579Z,8.72
2023-02-06T12:20:37.577Z,8.57
2023-02-06T12:21:37.556Z,8.44
2023-02-06T12:22:37.545Z,8.25
2023-02-06T12:23:37.555Z,8.17
2023-02-06T12:24:37.560Z,8.29
2023-02-06T12:25:37.859Z,8.08
2023-02-06T12:26:37.505Z,7.87
2023-02-06T12:27:39.276Z,7.62
2023-02-06T12:28:37.501Z,7.59
2023-02-06T12:29:37.501Z,7.49
2023-02-06T12:30:37.561Z,7.40
2023-02-06T12:31:37.598Z,7.37
2023-02-06T12:32:37.437Z,7.37
2023-02-06T12:33:37.462Z,7.15
2023-02-06T12:34:37.429Z,6.65
2023-02-06T12:35:37.714Z,6.59
2023-02-06T12:36:37.397Z,6.69
2023-02-06T12:37:37.386Z,6.65
2023-02-06T12:38:37.388Z,6.56
2023-02-06T12:39:37.365Z,6.40
2023-02-06T12:40:37.348Z,6.18
2023-02-06T12:41:37.343Z,6.14
2023-02-06T12:42:37.340Z,6.46
2023-02-06T12:43:37.334Z,6.89
2023-02-06T12:44:37.309Z,6.87
2023-02-06T12:45:37.617Z,6.76
2023-02-06T12:46:37.295Z,6.84
2023-02-06T12:47:37.294Z,6.80
2023-02-06T12:48:37.294Z,6.61
2023-02-06T12:49:37.256Z,6.51
2023-02-06T12:50:37.242Z,6.66
2023-02-06T12:51:37.231Z,7.17
2023-02-06T12:52:37.231Z,7.27
2023-02-06T12:53:37.249Z,7.35
2023-02-06T12:54:37.197Z,7.26
2023-02-06T12:55:37.556Z,8.36
2023-02-06T12:56:37.172Z,8.35
2023-02-06T12:57:37.168Z,7.75
2023-02-06T12:58:37.232Z,7.31
2023-02-06T12:59:41.623Z,6.99
2023-02-06T13:00:38.169Z,7.07
2023-02-06T13:01:37.218Z,7.49
2023-02-06T13:02:37.153Z,7.92
2023-02-06T13:03:37.132Z,8.33
2023-02-06T13:04:37.093Z,9.53
2023-02-06T13:05:37.472Z,10.52
2023-02-06T13:06:37.088Z,11.64
2023-02-06T13:07:48.818Z,11.38
2023-02-06T13:08:38.079Z,10.76
2023-02-06T13:09:37.051Z,9.89
2023-02-06T13:10:37.357Z,9.21
2023-02-06T13:11:37.032Z,8.58
2023-02-06T13:12:37.042Z,8.54
2023-02-06T13:13:37.063Z,9.52
2023-02-06T13:14:38.747Z,9.45
2023-02-06T13:15:37.368Z,9.40
2023-02-06T13:16:36.991Z,9.15
2023-02-06T13:17:36.981Z,9.68
2023-02-06T13:18:37.008Z,11.03
2023-02-06T13:19:36.960Z,12.09
2023-02-06T13:20:36.943Z,12.82
2023-02-06T13:21:36.939Z,13.76
2023-02-06T13:22:36.916Z,13.96
2023-02-06T13:23:36.923Z,14.31
2023-02-06T13:24:36.911Z,14.50
2023-02-06T13:25:37.243Z,14.64
2023-02-06T13:26:36.878Z,15.11
2023-02-06T13:27:36.862Z,15.81
2023-02-06T13:28:36.869Z,16.30
2023-02-06T13:29:36.847Z,16.14
2023-02-06T13:30:36.892Z,15.82
2023-02-06T13:31:36.858Z,14.99
2023-02-06T13:32:38.070Z,15.09
2023-02-06T13:33:37.091Z,15.01
2023-02-06T13:34:36.820Z,15.48
2023-02-06T13:35:37.085Z,15.88
2023-02-06T13:36:36.770Z,15.89
2023-02-06T13:37:36.764Z,15.86
2023-02-06T13:38:36.770Z,16.68
2023-02-06T13:39:36.742Z,17.44
2023-02-06T13:40:36.739Z,18.13
2023-02-06T13:41:36.734Z,18.28
2023-02-06T13:42:36.719Z,17.92
2023-02-06T13:43:36.734Z,17.94
2023-02-06T13:44:36.696Z,17.57
2023-02-06T13:45:37.003Z,16.80
2023-02-06T13:46:36.694Z,16.62
2023-02-06T13:47:36.656Z,16.11
2023-02-06T13:48:36.687Z,16.22
2023-02-06T13:49:36.638Z,15.03
2023-02-06T13:50:36.635Z,14.57
2023-02-06T13:51:36.617Z,14.53
2023-02-06T13:52:36.620Z,14.53
2023-02-06T13:53:36.616Z,13.92
2023-02-06T13:54:36.605Z,13.59
2023-02-06T13:55:36.845Z,13.74
2023-02-06T13:56:36.584Z,13.54
2023-02-06T13:57:36.557Z,13.27
2023-02-06T13:58:36.553Z,12.71
2023-02-06T13:59:36.562Z,11.68
2023-02-06T14:00:36.528Z,10.52
2023-02-06T14:01:36.549Z,9.71
2023-02-06T14:02:36.534Z,9.49
2023-02-06T14:03:36.503Z,9.20
2023-02-06T14:04:36.629Z,8.76
2023-02-06T14:05:36.955Z,8.39
2023-02-06T14:06:36.525Z,7.92
2023-02-06T14:10:00.160Z,7.42
2023-02-06T14:10:37.437Z,7.40
2023-02-06T14:11:36.419Z,7.15
2023-02-06T14:12:36.416Z,7.16
2023-02-06T14:13:36.499Z,7.17
2023-02-06T14:14:36.466Z,7.24
2023-02-06T14:15:36.838Z,7.16
2023-02-06T14:16:36.384Z,6.98
2023-02-06T14:17:36.343Z,6.94
2023-02-06T14:18:36.345Z,6.97
2023-02-06T14:19:36.335Z,6.91
2023-02-06T14:20:36.320Z,6.91
2023-02-06T14:21:36.297Z,6.86
2023-02-06T14:22:36.295Z,6.91
2023-02-06T14:23:36.294Z,6.91
2023-02-06T14:24:36.303Z,6.84
2023-02-06T14:25:36.556Z,6.68
2023-02-06T14:26:36.256Z,6.62
2023-02-06T14:27:36.241Z,6.47
2023-02-06T14:28:36.235Z,6.47
2023-02-06T14:29:36.233Z,6.38
2023-02-06T14:30:36.253Z,6.28
2023-02-06T14:31:36.290Z,6.44
2023-02-06T14:32:36.182Z,6.44
2023-02-06T14:33:36.259Z,6.54
2023-02-06T14:34:36.172Z,6.46
2023-02-06T14:35:36.507Z,6.35
2023-02-06T14:36:36.142Z,6.11
2023-02-06T14:37:36.128Z,6.01
2023-02-06T14:38:36.126Z,5.93
2023-02-06T14:39:36.110Z,5.93
2023-02-06T14:40:36.111Z,6.01
2023-02-06T14:41:36.080Z,5.96
2023-02-06T14:42:36.091Z,6.01
2023-02-06T14:43:36.064Z,5.86
2023-02-06T14:44:36.067Z,5.73
2023-02-06T14:45:42.112Z,5.71
2023-02-06T14:46:37.076Z,5.70
2023-02-06T14:47:36.015Z,5.75
2023-02-06T14:48:36.014Z,5.66
2023-02-06T14:49:36.012Z,5.52
2023-02-06T14:50:35.994Z,5.41
2023-02-06T14:51:35.983Z,5.38
2023-02-06T14:52:35.974Z,5.37
2023-02-06T14:53:35.956Z,5.38
2023-02-06T14:54:35.961Z,5.38
2023-02-06T14:55:36.456Z,5.32
2023-02-06T14:56:35.926Z,5.31
2023-02-06T14:57:35.948Z,5.41
2023-02-06T14:58:35.901Z,5.46
2023-02-06T14:59:35.955Z,5.43
2023-02-06T15:00:35.897Z,5.48
2023-02-06T15:01:35.866Z,5.41
2023-02-06T15:02:35.876Z,5.41
2023-02-06T15:03:36.030Z,5.45
2023-02-06T15:04:35.857Z,5.46
2023-02-06T15:05:36.139Z,5.52
2023-02-06T15:06:35.828Z,5.56